createdAt,value
2023-02-20T00:01:05.267Z,101998.69
2023-02-20T00:06:01.703Z,101986.31
2023-02-20T00:10:58.180Z,101983.84
2023-02-20T00:15:54.629Z,101962.66
2023-02-20T00:20:51.059Z,101960.53
2023-02-20T00:25:47.649Z,101936.75
2023-02-20T00:30:44.120Z,101916.13
2023-02-20T00:35:40.645Z,101908.81
2023-02-20T00:40:37.076Z,101881.28
2023-02-20T00:45:33.515Z,101870.28
2023-02-20T00:50:29.947Z,101854.84
2023-02-20T00:55:26.394Z,101848.59
2023-02-20T01:00:26.380Z,101821.00
2023-02-20T01:05:23.537Z,101835.59
2023-02-20T01:10:20.409Z,101838.88
2023-02-20T01:15:16.807Z,101835.19
2023-02-20T01:20:13.257Z,101841.19
2023-02-20T01:25:09.641Z,101819.56
2023-02-20T01:30:07.271Z,101807.19
2023-02-20T01:35:03.769Z,101829.91
2023-02-20T01:40:00.300Z,101795.00
2023-02-20T01:45:34.929Z,101791.84
2023-02-20T01:50:42.259Z,101785.13
2023-02-20T01:55:59.056Z,101771.00
2023-02-20T02:00:58.809Z,101755.56
2023-02-20T02:06:01.687Z,101730.41
2023-02-20T02:11:27.709Z,101707.41
2023-02-20T02:16:40.319Z,101718.34
2023-02-20T02:21:42.448Z,101696.97
2023-02-20T02:27:30.886Z,101697.59
2023-02-20T02:33:11.601Z,101695.44
2023-02-20T02:38:19.552Z,101704.91
2023-02-20T02:43:25.133Z,101740.44
2023-02-20T02:48:47.473Z,101697.28
2023-02-20T02:54:11.322Z,101690.44
2023-02-20T02:59:12.331Z,101677.84
2023-02-20T03:04:12.305Z,101665.59
2023-02-20T03:09:13.084Z,101674.81
2023-02-20T03:14:53.170Z,101664.25
2023-02-20T03:19:52.599Z,101667.47
2023-02-20T03:24:57.883Z,101669.16
2023-02-20T03:29:58.819Z,101665.19
2023-02-20T03:35:16.278Z,101665.94
2023-02-20T03:40:34.647Z,101655.16
2023-02-20T03:45:32.786Z,101641.34
2023-02-20T03:50:29.276Z,101630.81
2023-02-20T03:55:26.260Z,101636.34
2023-02-20T04:00:27.164Z,101652.66
2023-02-20T04:05:26.326Z,101638.56
2023-02-20T04:10:27.961Z,101636.97
2023-02-20T04:15:25.641Z,101609.28
2023-02-20T04:20:23.630Z,101597.31
2023-02-20T04:25:36.128Z,101586.44
2023-02-20T04:30:33.205Z,101583.53
2023-02-20T04:35:29.762Z,101567.28
2023-02-20T04:40:26.283Z,101557.03
2023-02-20T04:45:25.785Z,101541.56
2023-02-20T04:50:26.204Z,101524.22
2023-02-20T04:55:22.642Z,101530.69
2023-02-20T05:00:20.590Z,101513.94
2023-02-20T05:05:23.773Z,101537.78
2023-02-20T05:10:22.276Z,101550.81
2023-02-20T05:15:19.673Z,101532.38
2023-02-20T05:20:17.526Z,101519.94
2023-02-20T05:25:15.372Z,101510.72
2023-02-20T05:30:12.186Z,101502.59
2023-02-20T05:35:08.738Z,101488.47
2023-02-20T05:40:05.705Z,101471.69
2023-02-20T05:45:04.317Z,101461.41
2023-02-20T05:50:00.776Z,101465.72
2023-02-20T05:54:57.218Z,101443.78
2023-02-20T05:59:53.723Z,101437.00
2023-02-20T06:04:50.410Z,101442.13
2023-02-20T06:09:46.894Z,101419.63
2023-02-20T06:14:43.261Z,101406.63
2023-02-20T06:19:40.721Z,101421.28
2023-02-20T06:24:37.165Z,101421.28
2023-02-20T06:29:33.548Z,101427.78
2023-02-20T06:34:33.228Z,101412.03
2023-02-20T06:39:30.981Z,101431.59
2023-02-20T06:44:27.442Z,101438.13
2023-02-20T06:49:23.857Z,101432.47
2023-02-20T06:54:22.158Z,101427.59
2023-02-20T06:59:18.649Z,101424.88
2023-02-20T07:04:17.071Z,101428.44
2023-02-20T07:09:14.450Z,101435.00
2023-02-20T07:14:10.864Z,101438.78
2023-02-20T07:19:07.599Z,101435.53
2023-02-20T07:24:04.558Z,101445.31
2023-02-20T07:29:00.978Z,101433.91
2023-02-20T07:33:58.130Z,101436.09
2023-02-20T07:38:59.727Z,101431.72
2023-02-20T07:43:56.392Z,101411.66
2023-02-20T07:48:53.211Z,101412.47
2023-02-20T07:53:51.164Z,101405.66
2023-02-20T07:58:48.139Z,101399.72
2023-02-20T08:03:44.837Z,101404.06
2023-02-20T08:08:41.222Z,101390.47
2023-02-20T08:13:38.473Z,101379.59
2023-02-20T08:18:34.887Z,101365.50
2023-02-20T08:23:31.315Z,101382.59
2023-02-20T08:28:27.883Z,101388.28
2023-02-20T08:33:24.333Z,101366.03
2023-02-20T08:38:30.013Z,101365.19
2023-02-20T08:43:28.012Z,101365.47
2023-02-20T08:48:25.120Z,101345.38
2023-02-20T08:53:21.683Z,101349.72
2023-02-20T08:58:23.828Z,101348.09
2023-02-20T09:03:20.299Z,101341.56
2023-02-20T09:08:17.160Z,101328.53
2023-02-20T09:13:14.343Z,101319.84
2023-02-20T09:18:13.861Z,101316.59
2023-02-20T09:23:10.776Z,101330.72
2023-02-20T09:28:08.804Z,101323.09
2023-02-20T09:33:05.304Z,101331.78
2023-02-20T09:38:02.107Z,101328.78
2023-02-20T09:43:29.633Z,101329.59
2023-02-20T09:48:47.487Z,101321.97
2023-02-20T09:53:50.752Z,101307.56
2023-02-20T09:59:02.806Z,101294.81
2023-02-20T10:04:11.221Z,101305.66
2023-02-20T10:09:13.053Z,101308.88
2023-02-20T10:14:24.672Z,101306.69
2023-02-20T10:19:26.719Z,101312.34
2023-02-20T10:24:49.344Z,101305.50
2023-02-20T10:29:46.746Z,101295.13
2023-02-20T10:34:53.867Z,101293.34
2023-02-20T10:39:57.480Z,101297.63
2023-02-20T10:45:03.583Z,101282.56
2023-02-20T10:50:05.644Z,101287.69
2023-02-20T10:55:26.309Z,101275.72
2023-02-20T11:00:28.270Z,101264.75
2023-02-20T11:05:32.139Z,101282.66
2023-02-20T11:10:30.716Z,101266.88
2023-02-20T11:15:30.648Z,101294.63
2023-02-20T11:20:32.925Z,101280.38
2023-02-20T11:25:36.067Z,101273.28
2023-02-20T11:30:35.668Z,101279.78
2023-02-20T11:35:35.353Z,101249.75
2023-02-20T11:40:32.857Z,101251.28
2023-02-20T11:45:29.610Z,101242.47
2023-02-20T11:50:38.849Z,101243.25
2023-02-20T11:55:35.532Z,101214.53
2023-02-20T12:00:49.734Z,101199.72
2023-02-20T12:05:48.157Z,101198.31
2023-02-20T12:10:48.187Z,101185.94
2023-02-20T12:15:54.943Z,101190.31
2023-02-20T12:21:06.183Z,101191.31
2023-02-20T12:26:30.403Z,101189.13
2023-02-20T12:31:46.604Z,101189.13
2023-02-20T12:36:47.178Z,101168.94
2023-02-20T12:42:03.206Z,101184.09
2023-02-20T12:47:14.919Z,101192.81
2023-02-20T12:52:48.131Z,101160.09
2023-02-20T12:58:13.604Z,101160.59
2023-02-20T13:03:31.079Z,101166.59
2023-02-20T13:08:33.424Z,101171.44
2023-02-20T13:13:52.890Z,101167.03
2023-02-20T13:19:12.835Z,101166.44
2023-02-20T13:24:21.065Z,101163.41
2023-02-20T13:29:27.437Z,101166.44
2023-02-20T13:34:38.951Z,101175.72
2023-02-20T13:39:38.005Z,101168.06
2023-02-20T13:44:36.983Z,101158.75
2023-02-20T13:49:51.388Z,101148.97
2023-02-20T13:54:47.809Z,101173.00
2023-02-20T13:59:44.414Z,101155.03
2023-02-20T14:04:52.203Z,101148.44
2023-02-20T14:10:00.280Z,101153.91
2023-02-20T14:14:57.450Z,101153.91
2023-02-20T14:20:08.464Z,101143.00
2023-02-20T14:25:12.284Z,101155.53
2023-02-20T14:30:14.433Z,101144.03
2023-02-20T14:35:25.702Z,101144.84
2023-02-20T14:40:37.054Z,101150.66
2023-02-20T14:45:33.778Z,101178.72
2023-02-20T14:50:35.746Z,101153.03
2023-02-20T14:55:32.252Z,101156.28
2023-02-20T15:00:39.081Z,101139.75
2023-02-20T15:05:36.233Z,101174.03
2023-02-20T15:10:37.370Z,101163.78
2023-02-20T15:15:39.348Z,101162.53
2023-02-20T15:20:40.224Z,101169.75
2023-02-20T15:25:37.044Z,101181.47
2023-02-20T15:30:33.949Z,101181.03
2023-02-20T15:35:32.682Z,101210.13
2023-02-20T15:40:34.128Z,101200.16
2023-02-20T15:45:31.089Z,101218.16
2023-02-20T15:50:27.517Z,101205.72
2023-02-20T15:55:24.782Z,101207.91
2023-02-20T16:00:25.891Z,101206.88
2023-02-20T16:05:22.382Z,101200.34
2023-02-20T16:10:24.490Z,101220.53
2023-02-20T16:15:25.187Z,101194.41
2023-02-20T16:20:27.819Z,101198.75
2023-02-20T16:25:24.175Z,101202.59
2023-02-20T16:30:33.631Z,101200.94
2023-02-20T16:35:30.584Z,101204.78
2023-02-20T16:40:26.998Z,101209.16
2023-02-20T16:45:23.735Z,101204.81
2023-02-20T16:50:29.168Z,101205.34
2023-02-20T16:55:28.025Z,101230.94
2023-02-20T17:00:38.476Z,101226.88
2023-02-20T17:05:41.286Z,101219.00
2023-02-20T17:10:37.719Z,101227.97
2023-02-20T17:15:36.202Z,101242.41
2023-02-20T17:20:33.690Z,101238.34
2023-02-20T17:25:30.067Z,101243.78
2023-02-20T17:30:26.834Z,101256.88
2023-02-20T17:35:23.356Z,101247.59
2023-02-20T17:40:20.912Z,101237.53
2023-02-20T17:45:17.515Z,101245.69
2023-02-20T17:50:17.561Z,101244.09
2023-02-20T17:55:19.268Z,101249.53
2023-02-20T18:00:17.667Z,101246.81
2023-02-20T18:05:14.078Z,101257.69
2023-02-20T18:10:11.179Z,101250.59
2023-02-20T18:15:08.153Z,101245.75
2023-02-20T18:20:04.898Z,101247.59
2023-02-20T18:25:01.274Z,101247.88
2023-02-20T18:29:57.739Z,101266.38
2023-02-20T18:34:54.110Z,101246.81
2023-02-20T18:39:50.534Z,101259.31
2023-02-20T18:44:48.524Z,101246.81
2023-02-20T18:49:47.359Z,101247.59
2023-02-20T18:54:43.870Z,101251.13
2023-02-20T18:59:42.096Z,101243.78
2023-02-20T19:04:38.486Z,101254.66
2023-02-20T19:09:37.722Z,101259.31
2023-02-20T19:14:35.152Z,101268.00
2023-02-20T19:19:31.665Z,101257.13
2023-02-20T19:24:28.177Z,101266.38
2023-02-20T19:29:24.550Z,101274.25
2023-02-20T19:34:20.932Z,101247.88
2023-02-20T19:39:17.317Z,101265.22
2023-02-20T19:44:15.936Z,101260.91
2023-02-20T19:49:13.017Z,101244.03
2023-02-20T19:54:09.614Z,101257.38
2023-02-20T19:59:05.988Z,101248.88
2023-02-20T20:04:02.604Z,101251.34
2023-02-20T20:09:13.490Z,101249.72
2023-02-20T20:14:13.368Z,101260.84
2023-02-20T20:19:11.617Z,101245.91
2023-02-20T20:24:10.926Z,101253.78
2023-02-20T20:29:08.070Z,101249.16
2023-02-20T20:34:06.208Z,101255.41
2023-02-20T20:39:04.377Z,101252.16
2023-02-20T20:44:06.312Z,101255.41
2023-02-20T20:49:03.082Z,101267.41
2023-02-20T20:53:59.733Z,101246.16
2023-02-20T20:58:56.438Z,101259.44
2023-02-20T21:03:53.158Z,101265.22
2023-02-20T21:08:49.756Z,101262.47
2023-02-20T21:13:48.827Z,101257.03
2023-02-20T21:18:46.406Z,101263.56
2023-02-20T21:23:45.183Z,101253.78
2023-02-20T21:28:41.597Z,101252.94
2023-02-20T21:33:38.019Z,101253.78
2023-02-20T21:38:35.065Z,101251.63
2023-02-20T21:43:49.894Z,101252.16
2023-02-20T21:48:46.337Z,101242.06
2023-02-20T21:53:42.764Z,101246.69
2023-02-20T21:58:57.830Z,101252.16
2023-02-20T22:03:54.210Z,101252.16
2023-02-20T22:09:09.477Z,101245.09
2023-02-20T22:14:24.769Z,101244.56
2023-02-20T22:19:40.074Z,101242.38
2023-02-20T22:24:55.752Z,101240.19
2023-02-20T22:30:10.820Z,101253.31
2023-02-20T22:35:26.352Z,101240.50
2023-02-20T22:40:41.491Z,101238.06
2023-02-20T22:45:56.555Z,101247.88
2023-02-20T22:51:11.680Z,101266.38
2023-02-20T22:56:34.731Z,101270.72
2023-02-20T23:01:49.974Z,101277.81
2023-02-20T23:07:04.916Z,101266.41
2023-02-20T23:12:19.937Z,101263.19
2023-02-20T23:17:37.504Z,101274.88
2023-02-20T23:22:52.835Z,101272.97
2023-02-20T23:28:08.520Z,101275.97
2023-02-20T23:33:23.703Z,101261.53
2023-02-20T23:38:38.881Z,101288.22
2023-02-20T23:43:54.014Z,101284.69
2023-02-20T23:49:09.626Z,101291.81
2023-02-20T23:54:24.678Z,101292.59
2023-02-20T23:59:39.869Z,101300.28
